createdAt,value
2023-04-06T00:02:09.003Z,53.56
2023-04-06T00:04:36.973Z,53.50
2023-04-06T00:07:05.265Z,53.54
2023-04-06T00:09:33.216Z,53.98
2023-04-06T00:12:01.270Z,52.95
2023-04-06T00:14:29.286Z,54.51
2023-04-06T00:16:59.080Z,53.88
2023-04-06T00:19:27.284Z,54.07
2023-04-06T00:21:55.254Z,53.76
2023-04-06T00:24:23.260Z,53.65
2023-04-06T00:26:51.263Z,54.75
2023-04-06T00:29:19.227Z,54.42
2023-04-06T00:31:47.273Z,55.18
2023-04-06T00:34:17.057Z,54.66
2023-04-06T00:36:45.367Z,54.73
2023-04-06T00:39:13.330Z,56.13
2023-04-06T00:41:47.959Z,56.58
2023-04-06T00:44:16.255Z,56.77
2023-04-06T00:46:44.291Z,56.90
2023-04-06T00:49:12.387Z,56.23
2023-04-06T00:51:41.876Z,56.23
2023-04-06T00:54:09.985Z,56.88
2023-04-06T00:56:38.100Z,57.80
2023-04-06T00:59:06.394Z,57.15
2023-04-06T01:01:35.304Z,57.52
2023-04-06T01:04:11.670Z,57.49
2023-04-06T01:06:44.730Z,57.58
2023-04-06T01:09:12.818Z,57.42
2023-04-06T01:11:40.899Z,57.38
2023-04-06T01:14:12.178Z,57.29
2023-04-06T01:17:01.561Z,57.45
2023-04-06T01:19:32.393Z,56.48
2023-04-06T01:22:02.225Z,57.27
2023-04-06T01:24:34.946Z,56.79
2023-04-06T01:27:30.873Z,56.72
2023-04-06T01:30:18.364Z,57.61
2023-04-06T01:32:55.795Z,56.74
2023-04-06T01:35:44.130Z,57.12
2023-04-06T01:38:16.351Z,56.80
2023-04-06T01:40:46.970Z,57.21
2023-04-06T01:43:15.740Z,57.51
2023-04-06T01:45:58.383Z,57.76
2023-04-06T01:48:31.711Z,57.74
2023-04-06T01:51:01.316Z,57.91
2023-04-06T01:53:33.464Z,57.56
2023-04-06T01:56:08.680Z,57.86
2023-04-06T01:58:41.087Z,57.87
2023-04-06T02:01:09.236Z,58.29
2023-04-06T02:03:49.601Z,57.72
2023-04-06T02:06:17.664Z,57.22
2023-04-06T02:08:45.748Z,56.78
2023-04-06T02:11:15.208Z,56.43
2023-04-06T02:13:48.318Z,57.16
2023-04-06T02:16:17.862Z,58.18
2023-04-06T02:18:47.661Z,57.36
2023-04-06T02:21:18.574Z,58.26
2023-04-06T02:23:46.715Z,57.41
2023-04-06T02:26:16.603Z,58.29
2023-04-06T02:28:44.751Z,57.68
2023-04-06T02:31:12.707Z,57.51
2023-04-06T02:33:40.811Z,58.61
2023-04-06T02:36:09.221Z,57.74
2023-04-06T02:38:37.310Z,57.88
2023-04-06T02:41:05.331Z,57.77
2023-04-06T02:43:34.915Z,58.28
2023-04-06T02:46:13.040Z,59.00
2023-04-06T02:48:41.393Z,58.01
2023-04-06T02:51:09.352Z,58.44
2023-04-06T02:53:42.376Z,57.78
2023-04-06T02:56:10.404Z,58.32
2023-04-06T02:58:47.847Z,57.62
2023-04-06T03:01:16.509Z,58.36
2023-04-06T03:03:45.259Z,58.51
2023-04-06T03:06:20.763Z,57.52
2023-04-06T03:08:51.570Z,58.09
2023-04-06T03:11:19.739Z,57.93
2023-04-06T03:13:50.352Z,58.46
2023-04-06T03:16:19.612Z,58.87
2023-04-06T03:18:48.181Z,58.47
2023-04-06T03:21:17.289Z,58.71
2023-04-06T03:23:53.644Z,57.90
2023-04-06T03:26:23.187Z,58.38
2023-04-06T03:28:54.492Z,57.97
2023-04-06T03:31:28.352Z,58.30
2023-04-06T03:34:01.190Z,57.99
2023-04-06T03:36:33.136Z,57.48
2023-04-06T03:39:02.470Z,57.94
2023-04-06T03:41:33.351Z,58.93
2023-04-06T03:44:12.948Z,58.36
2023-04-06T03:46:40.953Z,57.55
2023-04-06T03:49:09.723Z,58.13
2023-04-06T03:51:37.986Z,58.26
2023-04-06T03:54:06.117Z,57.63
2023-04-06T03:56:34.090Z,58.14
2023-04-06T03:59:02.953Z,58.78
2023-04-06T04:01:32.471Z,58.74
2023-04-06T04:04:00.689Z,58.41
2023-04-06T04:06:28.754Z,59.09
2023-04-06T04:08:57.012Z,58.35
2023-04-06T04:11:24.964Z,58.56
2023-04-06T04:13:58.991Z,59.25
2023-04-06T04:16:27.040Z,59.52
2023-04-06T04:18:56.450Z,59.31
2023-04-06T04:21:25.060Z,59.99
2023-04-06T04:23:53.644Z,59.76
2023-04-06T04:26:21.998Z,60.39
2023-04-06T04:28:49.939Z,59.29
2023-04-06T04:31:19.184Z,59.84
2023-04-06T04:33:51.524Z,60.42
2023-04-06T04:36:28.054Z,60.85
2023-04-06T04:38:58.413Z,61.21
2023-04-06T04:41:27.080Z,61.05
2023-04-06T04:43:55.286Z,60.98
2023-04-06T04:46:26.241Z,61.85
2023-04-06T04:48:55.594Z,61.71
2023-04-06T04:51:25.705Z,61.61
2023-04-06T04:54:24.874Z,61.75
2023-04-06T04:56:53.337Z,61.66
2023-04-06T04:59:34.782Z,61.63
2023-04-06T05:02:11.520Z,60.94
2023-04-06T05:04:49.069Z,60.81
2023-04-06T05:07:22.455Z,60.76
2023-04-06T05:09:52.952Z,60.36
2023-04-06T05:12:23.114Z,61.01
2023-04-06T05:15:04.797Z,60.98
2023-04-06T05:17:33.215Z,61.27
2023-04-06T05:20:01.335Z,61.25
2023-04-06T05:22:32.313Z,61.36
2023-04-06T05:25:08.587Z,61.39
2023-04-06T05:27:36.761Z,61.25
2023-04-06T05:30:10.574Z,61.20
2023-04-06T05:32:45.403Z,61.22
2023-04-06T05:35:14.176Z,60.95
2023-04-06T05:37:45.624Z,60.71
2023-04-06T05:40:17.130Z,61.78
2023-04-06T05:42:45.319Z,62.28
2023-04-06T05:45:17.811Z,62.96
2023-04-06T05:47:49.636Z,62.46
2023-04-06T05:50:31.532Z,62.30
2023-04-06T05:53:00.102Z,62.37
2023-04-06T05:55:34.753Z,61.72
2023-04-06T05:58:22.593Z,61.26
2023-04-06T06:00:58.946Z,61.50
2023-04-06T06:03:28.389Z,61.19
2023-04-06T06:06:02.858Z,61.31
2023-04-06T06:08:38.741Z,60.56
2023-04-06T06:11:14.537Z,59.58
2023-04-06T06:13:43.287Z,58.78
2023-04-06T06:16:12.730Z,60.12
2023-04-06T06:18:45.903Z,60.20
2023-04-06T06:21:14.786Z,59.98
2023-04-06T06:23:44.433Z,59.73
2023-04-06T06:26:18.157Z,59.40
2023-04-06T06:28:46.363Z,59.84
2023-04-06T06:31:15.605Z,59.82
2023-04-06T06:33:44.634Z,59.33
2023-04-06T06:36:12.829Z,59.00
2023-04-06T06:38:41.870Z,58.94
2023-04-06T06:41:10.514Z,59.02
2023-04-06T06:43:41.017Z,58.22
2023-04-06T06:46:11.104Z,58.52
2023-04-06T06:48:41.408Z,58.77
2023-04-06T06:51:10.617Z,58.89
2023-04-06T06:53:38.600Z,59.17
2023-04-06T06:56:07.139Z,57.99
2023-04-06T06:58:35.214Z,57.71
2023-04-06T07:01:06.272Z,58.15
2023-04-06T07:03:35.686Z,57.84
2023-04-06T07:06:03.755Z,57.15
2023-04-06T07:08:31.783Z,57.00
2023-04-06T07:10:59.889Z,55.99
2023-04-06T07:13:28.601Z,56.47
2023-04-06T07:15:59.178Z,57.49
2023-04-06T07:18:28.641Z,58.32
2023-04-06T07:20:57.364Z,57.97
2023-04-06T07:23:26.319Z,57.38
2023-04-06T07:25:55.699Z,57.73
2023-04-06T07:28:23.706Z,57.35
2023-04-06T07:30:52.097Z,57.21
2023-04-06T07:33:20.124Z,57.75
2023-04-06T07:35:49.830Z,57.92
2023-04-06T07:38:18.036Z,57.26
2023-04-06T07:40:46.152Z,56.83
2023-04-06T07:43:15.302Z,57.53
2023-04-06T07:45:43.481Z,57.62
2023-04-06T07:48:12.462Z,58.36
2023-04-06T07:50:41.305Z,59.47
2023-04-06T07:53:12.013Z,58.30
2023-04-06T07:55:40.942Z,56.71
2023-04-06T07:58:08.906Z,56.66
2023-04-06T08:00:36.950Z,56.27
2023-04-06T08:03:05.079Z,55.88
2023-04-06T08:05:33.178Z,56.44
2023-04-06T08:08:01.143Z,55.02
2023-04-06T08:10:30.548Z,54.27
2023-04-06T08:12:58.524Z,54.25
2023-04-06T08:15:26.569Z,54.33
2023-04-06T08:17:54.659Z,54.11
2023-04-06T08:20:22.754Z,53.99
2023-04-06T08:22:53.515Z,54.14
2023-04-06T08:25:21.720Z,53.79
2023-04-06T08:27:51.111Z,54.05
2023-04-06T08:30:20.258Z,53.87
2023-04-06T08:32:48.579Z,53.37
2023-04-06T08:35:16.732Z,52.53
2023-04-06T08:37:44.701Z,51.95
2023-04-06T08:40:13.948Z,52.69
2023-04-06T08:42:46.304Z,52.95
2023-04-06T08:45:18.863Z,51.55
2023-04-06T08:47:47.577Z,51.37
2023-04-06T08:50:16.400Z,51.23
2023-04-06T08:52:45.493Z,51.19
2023-04-06T08:55:13.492Z,50.80
2023-04-06T08:57:42.312Z,50.98
2023-04-06T09:00:12.849Z,50.92
2023-04-06T09:02:44.642Z,50.50
2023-04-06T09:05:13.039Z,49.42
2023-04-06T09:07:41.366Z,48.91
2023-04-06T09:10:10.770Z,49.82
2023-04-06T09:12:38.808Z,49.22
2023-04-06T09:15:07.864Z,49.96
2023-04-06T09:17:37.738Z,50.78
2023-04-06T09:20:08.285Z,49.24
2023-04-06T09:22:39.813Z,49.46
2023-04-06T09:25:08.976Z,48.88
2023-04-06T09:27:38.655Z,48.76
2023-04-06T09:30:08.850Z,48.38
2023-04-06T09:32:48.050Z,48.39
2023-04-06T09:35:18.147Z,49.21
2023-04-06T09:37:46.802Z,48.24
2023-04-06T09:40:15.908Z,47.29
2023-04-06T09:42:44.563Z,47.97
2023-04-06T09:45:12.832Z,47.78
2023-04-06T09:47:42.648Z,47.63
2023-04-06T09:50:12.977Z,47.16
2023-04-06T09:52:48.660Z,46.55
2023-04-06T09:55:22.995Z,46.14
2023-04-06T09:57:57.919Z,46.55
2023-04-06T10:00:28.588Z,46.32
2023-04-06T10:03:01.878Z,44.72
2023-04-06T10:05:46.808Z,43.81
2023-04-06T10:08:17.309Z,44.94
2023-04-06T10:10:45.387Z,43.83
2023-04-06T10:13:14.173Z,44.11
2023-04-06T10:15:42.467Z,44.61
2023-04-06T10:18:10.977Z,44.08
2023-04-06T10:20:44.424Z,43.10
2023-04-06T10:23:17.357Z,45.24
2023-04-06T10:25:54.916Z,45.09
2023-04-06T10:28:22.941Z,44.31
2023-04-06T10:30:50.937Z,42.75
2023-04-06T10:33:21.274Z,43.46
2023-04-06T10:35:49.388Z,42.88
2023-04-06T10:38:23.066Z,42.92
2023-04-06T10:40:51.084Z,41.82
2023-04-06T10:43:21.910Z,41.67
2023-04-06T10:45:57.880Z,40.84
2023-04-06T10:48:26.542Z,41.63
2023-04-06T10:50:55.946Z,40.36
2023-04-06T10:53:26.108Z,40.35
2023-04-06T10:55:56.991Z,40.25
2023-04-06T10:58:27.431Z,40.13
2023-04-06T11:00:56.584Z,38.70
2023-04-06T11:03:24.615Z,38.36
2023-04-06T11:05:53.472Z,38.57
2023-04-06T11:08:27.546Z,38.51
2023-04-06T11:11:06.289Z,37.76
2023-04-06T11:13:43.181Z,38.21
2023-04-06T11:16:18.870Z,39.01
2023-04-06T11:18:55.126Z,38.58
2023-04-06T11:21:34.798Z,39.24
2023-04-06T11:24:12.355Z,37.01
2023-04-06T11:26:41.905Z,36.82
2023-04-06T11:29:10.228Z,36.27
2023-04-06T11:31:45.045Z,35.02
2023-04-06T11:34:14.842Z,34.97
2023-04-06T11:36:44.256Z,34.13
2023-04-06T11:39:14.348Z,33.46
2023-04-06T11:41:42.561Z,34.50
2023-04-06T11:44:11.374Z,34.77
2023-04-06T11:46:39.465Z,34.04
2023-04-06T11:49:07.653Z,33.88
2023-04-06T11:51:38.711Z,33.91
2023-04-06T11:54:06.781Z,33.20
2023-04-06T11:56:36.304Z,32.56
2023-04-06T11:59:04.929Z,31.89
2023-04-06T12:01:38.785Z,32.45
2023-04-06T12:04:07.618Z,31.43
2023-04-06T12:06:36.212Z,30.79
2023-04-06T12:09:04.300Z,30.51
2023-04-06T12:11:32.461Z,30.91
2023-04-06T12:14:02.741Z,31.35
2023-04-06T12:16:30.824Z,30.59
2023-04-06T12:18:58.860Z,30.22
2023-04-06T12:21:26.934Z,28.21
2023-04-06T12:23:54.951Z,26.98
2023-04-06T12:26:23.045Z,27.01
2023-04-06T12:28:51.058Z,27.42
2023-04-06T12:31:22.475Z,27.43
2023-04-06T12:33:51.621Z,29.75
2023-04-06T12:36:22.235Z,26.40
2023-04-06T12:38:51.822Z,27.67
2023-04-06T12:41:20.045Z,27.00
2023-04-06T12:43:48.493Z,26.75
2023-04-06T12:46:16.678Z,26.18
2023-04-06T12:48:46.409Z,27.02
2023-04-06T12:51:14.726Z,29.11
2023-04-06T12:53:42.869Z,28.42
2023-04-06T12:56:15.834Z,28.67
2023-04-06T12:58:43.960Z,29.45
2023-04-06T13:01:13.895Z,29.89
2023-04-06T13:03:42.717Z,29.15
2023-04-06T13:06:12.441Z,29.08
2023-04-06T13:08:41.735Z,29.64
2023-04-06T13:11:10.306Z,29.84
2023-04-06T13:13:39.378Z,30.73
2023-04-06T13:16:09.811Z,30.71
2023-04-06T13:18:40.122Z,32.19
2023-04-06T13:21:09.194Z,32.37
2023-04-06T13:23:38.555Z,31.96
2023-04-06T13:26:09.371Z,31.90
2023-04-06T13:28:40.127Z,33.04
2023-04-06T13:31:09.236Z,30.44
2023-04-06T13:33:37.587Z,30.04
2023-04-06T13:36:06.176Z,30.50
2023-04-06T13:38:34.658Z,30.65
2023-04-06T13:41:04.116Z,30.49
2023-04-06T13:43:32.092Z,31.20
2023-04-06T13:46:01.806Z,31.08
2023-04-06T13:48:29.904Z,30.97
2023-04-06T13:50:57.918Z,31.76
2023-04-06T13:53:26.676Z,33.00
2023-04-06T13:55:55.453Z,32.37
2023-04-06T13:58:25.037Z,31.48
2023-04-06T14:00:53.771Z,31.21
2023-04-06T14:03:22.407Z,32.70
2023-04-06T14:05:50.431Z,32.77
2023-04-06T14:08:18.387Z,32.35
2023-04-06T14:10:46.326Z,34.00
2023-04-06T14:13:14.397Z,33.40
2023-04-06T14:15:43.681Z,32.80
2023-04-06T14:18:11.638Z,33.86
2023-04-06T14:20:39.600Z,33.10
2023-04-06T14:23:07.556Z,33.37
2023-04-06T14:25:36.029Z,33.56
2023-04-06T14:28:04.190Z,33.56
2023-04-06T14:30:32.502Z,32.94
2023-04-06T14:33:02.035Z,33.38
2023-04-06T14:35:31.622Z,32.87
2023-04-06T14:38:00.084Z,34.02
2023-04-06T14:40:28.149Z,33.86
2023-04-06T14:42:57.482Z,33.58
2023-04-06T14:45:25.459Z,33.35
2023-04-06T14:47:53.396Z,34.36
2023-04-06T14:50:22.780Z,34.25
2023-04-06T14:52:50.832Z,34.76
2023-04-06T14:55:19.011Z,34.57
2023-04-06T14:57:47.099Z,34.06
2023-04-06T15:00:16.214Z,34.46
2023-04-06T15:02:44.982Z,34.80
2023-04-06T15:05:13.372Z,34.90
2023-04-06T15:07:42.785Z,35.03
2023-04-06T15:10:12.335Z,35.31
2023-04-06T15:12:40.438Z,34.61
2023-04-06T15:15:09.246Z,34.38
2023-04-06T15:17:37.226Z,34.82
2023-04-06T15:20:05.996Z,34.67
2023-04-06T15:22:34.002Z,35.21
2023-04-06T15:25:03.327Z,35.13
2023-04-06T15:27:31.270Z,34.89
2023-04-06T15:29:59.537Z,34.94
2023-04-06T15:32:27.858Z,35.65
2023-04-06T15:34:57.875Z,36.39
2023-04-06T15:37:26.007Z,37.43
2023-04-06T15:39:53.929Z,36.58
2023-04-06T15:42:23.235Z,35.93
2023-04-06T15:44:51.405Z,36.37
2023-04-06T15:47:19.352Z,37.01
2023-04-06T15:49:47.413Z,37.20
2023-04-06T15:52:15.614Z,36.57
2023-04-06T15:54:43.519Z,36.08
2023-04-06T15:57:11.461Z,36.03
2023-04-06T15:59:40.770Z,35.93
2023-04-06T16:02:08.773Z,37.57
2023-04-06T16:04:36.837Z,37.10
2023-04-06T16:07:05.572Z,37.26
2023-04-06T16:09:33.504Z,36.27
2023-04-06T16:12:01.553Z,37.06
2023-04-06T16:14:29.462Z,36.07
2023-04-06T16:16:58.792Z,35.74
2023-04-06T16:19:26.716Z,35.79
2023-04-06T16:21:54.624Z,35.42
2023-04-06T16:24:23.364Z,36.58
2023-04-06T16:26:52.279Z,37.36
2023-04-06T16:29:20.194Z,37.16
2023-04-06T16:31:48.176Z,37.16
2023-04-06T16:34:17.457Z,38.08
2023-04-06T16:36:46.468Z,38.24
2023-04-06T16:39:14.437Z,37.74
2023-04-06T16:41:42.389Z,36.94
2023-04-06T16:44:11.347Z,36.85
2023-04-06T16:46:40.080Z,36.91
2023-04-06T16:49:08.001Z,37.25
2023-04-06T16:51:37.730Z,36.78
2023-04-06T16:54:06.155Z,36.63
2023-04-06T16:56:34.298Z,36.48
2023-04-06T16:59:02.224Z,37.90
2023-04-06T17:01:30.816Z,36.50
2023-04-06T17:03:59.083Z,36.76
2023-04-06T17:06:28.149Z,37.34
2023-04-06T17:08:59.717Z,37.04
2023-04-06T17:11:48.768Z,38.18
2023-04-06T17:14:15.820Z,37.93
2023-04-06T17:16:43.773Z,37.09
2023-04-06T17:19:11.698Z,37.10
2023-04-06T17:21:41.703Z,37.39
2023-04-06T17:24:11.179Z,37.00
2023-04-06T17:26:39.119Z,36.44
2023-04-06T17:29:07.090Z,36.03
2023-04-06T17:31:35.137Z,36.31
2023-04-06T17:34:03.376Z,37.38
2023-04-06T17:36:32.704Z,36.45
2023-04-06T17:39:00.669Z,37.10
2023-04-06T17:41:32.652Z,37.20
2023-04-06T17:44:00.870Z,37.34
2023-04-06T17:46:28.839Z,36.64
2023-04-06T17:48:56.823Z,36.97
2023-04-06T17:51:25.922Z,36.83
2023-04-06T17:53:54.015Z,37.00
2023-04-06T17:56:23.339Z,37.22
2023-04-06T17:58:56.864Z,37.54
2023-04-06T18:01:24.902Z,36.83
2023-04-06T18:03:53.034Z,37.56
2023-04-06T18:06:25.511Z,37.68
2023-04-06T18:08:54.007Z,37.95
2023-04-06T18:11:22.102Z,37.46
2023-04-06T18:13:50.474Z,37.70
2023-04-06T18:16:21.388Z,37.73
2023-04-06T18:18:49.628Z,37.67
2023-04-06T18:21:17.766Z,37.79
2023-04-06T18:23:45.748Z,37.64
2023-04-06T18:26:17.627Z,38.16
2023-04-06T18:28:45.999Z,37.76
2023-04-06T18:31:14.085Z,38.17
2023-04-06T18:33:43.938Z,37.72
2023-04-06T18:36:13.452Z,38.00
2023-04-06T18:38:44.260Z,38.34
2023-04-06T18:41:12.428Z,38.05
2023-04-06T18:43:40.431Z,38.46
2023-04-06T18:46:12.529Z,39.19
2023-04-06T18:48:40.571Z,38.48
2023-04-06T18:51:10.508Z,38.54
2023-04-06T18:53:39.919Z,39.11
2023-04-06T18:56:14.408Z,38.66
2023-04-06T18:58:42.717Z,38.73
2023-04-06T19:01:10.589Z,39.29
2023-04-06T19:03:39.892Z,38.92
2023-04-06T19:06:09.556Z,39.16
2023-04-06T19:08:37.553Z,40.09
2023-04-06T19:11:09.008Z,40.46
2023-04-06T19:13:38.225Z,40.32
2023-04-06T19:16:09.941Z,40.49
2023-04-06T19:18:38.368Z,40.97
2023-04-06T19:21:14.978Z,41.29
2023-04-06T19:23:44.765Z,41.47
2023-04-06T19:26:12.732Z,42.00
2023-04-06T19:28:40.809Z,41.58
2023-04-06T19:31:09.857Z,42.10
2023-04-06T19:33:39.073Z,41.50
2023-04-06T19:36:07.636Z,41.65
2023-04-06T19:38:36.387Z,42.52
2023-04-06T19:41:06.532Z,42.76
2023-04-06T19:43:34.648Z,42.61
2023-04-06T19:46:02.647Z,43.03
2023-04-06T19:48:30.703Z,42.71
2023-04-06T19:50:58.579Z,42.43
2023-04-06T19:53:26.508Z,42.55
2023-04-06T19:55:54.557Z,42.15
2023-04-06T19:58:24.067Z,43.68
2023-04-06T20:00:52.006Z,44.47
2023-04-06T20:03:20.085Z,43.51
2023-04-06T20:05:48.198Z,44.91
2023-04-06T20:08:16.155Z,43.81
2023-04-06T20:10:44.073Z,43.41
2023-04-06T20:13:12.186Z,43.55
2023-04-06T20:15:41.810Z,44.57
2023-04-06T20:18:09.811Z,44.41
2023-04-06T20:20:37.819Z,44.49
2023-04-06T20:23:05.820Z,45.43
2023-04-06T20:25:33.750Z,45.79
2023-04-06T20:28:01.714Z,47.15
2023-04-06T20:30:29.674Z,47.83
2023-04-06T20:32:59.305Z,48.17
2023-04-06T20:35:27.597Z,47.66
2023-04-06T20:37:55.759Z,47.98
2023-04-06T20:40:23.833Z,48.07
2023-04-06T20:42:52.258Z,47.28
2023-04-06T20:45:20.486Z,47.24
2023-04-06T20:47:48.521Z,46.56
2023-04-06T20:50:18.090Z,46.78
2023-04-06T20:52:46.043Z,46.88
2023-04-06T20:55:14.015Z,47.02
2023-04-06T20:57:43.004Z,47.25
2023-04-06T21:00:12.827Z,47.33
2023-04-06T21:02:41.158Z,47.26
2023-04-06T21:05:10.462Z,47.16
2023-04-06T21:07:39.777Z,47.55
2023-04-06T21:10:09.590Z,47.83
2023-04-06T21:12:37.619Z,47.23
2023-04-06T21:15:06.451Z,47.73
2023-04-06T21:17:34.390Z,47.32
2023-04-06T21:20:03.978Z,48.70
2023-04-06T21:22:31.970Z,49.21
2023-04-06T21:25:01.296Z,48.02
2023-04-06T21:27:29.208Z,48.06
2023-04-06T21:29:57.093Z,48.81
2023-04-06T21:32:25.138Z,49.53
2023-04-06T21:34:53.111Z,49.58
2023-04-06T21:37:21.189Z,48.60
2023-04-06T21:39:49.175Z,49.79
2023-04-06T21:42:18.760Z,49.23
2023-04-06T21:44:46.639Z,49.00
2023-04-06T21:47:14.617Z,50.14
2023-04-06T21:49:42.509Z,49.82
2023-04-06T21:52:10.431Z,49.41
2023-04-06T21:54:38.693Z,49.71
2023-04-06T21:57:06.600Z,49.84
2023-04-06T21:59:35.853Z,49.58
2023-04-06T22:02:03.836Z,50.09
2023-04-06T22:04:32.427Z,49.35
2023-04-06T22:07:00.481Z,49.59
2023-04-06T22:09:28.397Z,50.04
2023-04-06T22:11:56.331Z,50.05
2023-04-06T22:14:24.906Z,49.31
2023-04-06T22:16:54.208Z,49.94
2023-04-06T22:19:22.098Z,49.90
2023-04-06T22:21:50.133Z,50.33
2023-04-06T22:24:18.386Z,50.10
2023-04-06T22:26:46.463Z,48.38
2023-04-06T22:29:14.387Z,49.74
2023-04-06T22:31:42.389Z,49.38
2023-04-06T22:34:11.764Z,48.69
2023-04-06T22:36:39.726Z,48.86
2023-04-06T22:39:07.861Z,49.06
2023-04-06T22:41:36.212Z,49.34
2023-04-06T22:44:04.106Z,49.44
2023-04-06T22:46:32.015Z,50.66
2023-04-06T22:48:59.951Z,50.66
2023-04-06T22:51:29.294Z,49.79
2023-04-06T22:53:57.173Z,50.34
2023-04-06T22:56:25.722Z,51.25
2023-04-06T22:58:55.869Z,51.55
2023-04-06T23:01:23.869Z,51.34
2023-04-06T23:03:51.883Z,52.22
2023-04-06T23:06:19.875Z,52.55
2023-04-06T23:08:49.373Z,51.59
2023-04-06T23:11:17.367Z,52.29
2023-04-06T23:13:45.259Z,51.57
2023-04-06T23:16:13.153Z,52.36
2023-04-06T23:18:41.039Z,51.37
2023-04-06T23:21:08.947Z,51.01
2023-04-06T23:23:36.878Z,51.83
2023-04-06T23:26:06.853Z,52.47
2023-04-06T23:28:34.808Z,52.75
2023-04-06T23:31:02.712Z,52.05
2023-04-06T23:33:30.673Z,52.21
2023-04-06T23:35:58.581Z,51.76
2023-04-06T23:38:26.568Z,50.38
2023-04-06T23:40:54.485Z,50.55
2023-04-06T23:43:23.790Z,50.47
2023-04-06T23:45:51.695Z,50.07
2023-04-06T23:48:19.628Z,50.14
2023-04-06T23:50:47.553Z,50.88
2023-04-06T23:53:15.552Z,51.35
2023-04-06T23:55:43.475Z,51.13
2023-04-06T23:58:11.371Z,51.67
